Time;durP1;ratioP1;P1;durP2;ratioP2;P2;SDS_P1;SDS_P2;PMS_P1;PMS_P2;Temp;Humidity;BMP_temperature;BMP_pressure;BME280_temperature;BME280_humidity;BME280_pressure;Samples;Min_cycle;Max_cycle;Signal;HPM_P1;HPM_P2
2022/01/14 00:01:35;;;;;;;;;;;3.70;99.90;;;;;;4975304;28;19914;-78
2022/01/14 00:04:01;;;;;;;;;;;3.90;99.90;;;;;;4975216;28;19965;-78
2022/01/14 00:06:26;;;;;;;;;;;3.80;99.90;;;;;;4975122;28;19911;-78
2022/01/14 00:08:57;;;;;;;;;;;3.80;99.90;;;;;;4975032;28;20005;-78
2022/01/14 00:11:23;;;;;;;;;;;3.60;99.90;;;;;;4957418;28;19910;-78
2022/01/14 00:14:09;;;;;;;;;;;3.40;99.90;;;;;;4974915;28;19910;-78
2022/01/14 00:16:35;;;;;;;;;;;3.30;99.90;;;;;;4957816;28;19917;-78
2022/01/14 00:19:01;;;;;;;;;;;3.20;99.90;;;;;;4957236;28;19914;-78
2022/01/14 00:21:27;;;;;;;;;;;3.20;99.90;;;;;;4974894;28;19960;-78
2022/01/14 00:24:04;;;;;;;;;;;3.20;99.90;;;;;;4974828;28;19917;-79
2022/01/14 00:32:03;;;;;;;;;;;3.30;99.90;;;;;;4974945;28;19949;-78
2022/01/14 00:34:29;;;;;;;;;;;3.30;99.90;;;;;;4975006;28;20008;-78
2022/01/14 00:36:55;;;;;;;;;;;3.30;99.90;;;;;;4974670;28;19992;-78
2022/01/14 00:39:20;;;;;;;;;;;3.30;99.90;;;;;;4974628;28;19917;-78
2022/01/14 00:41:46;;;;;;;;;;;3.40;99.90;;;;;;4975114;28;19911;-78
2022/01/14 00:44:15;;;;;;;;;;;3.60;99.90;;;;;;4973372;28;19933;-79
2022/01/14 00:46:42;;;;;;;;;;;3.60;99.90;;;;;;4974709;28;19910;-78
2022/01/14 00:49:08;;;;;;;;;;;3.40;99.90;;;;;;4974618;28;19957;-78
2022/01/14 00:51:34;;;;;;;;;;;3.50;99.90;;;;;;4974591;28;19917;-78
2022/01/14 00:54:00;;;;;;;;;;;3.60;99.90;;;;;;4953824;29;20297;-78
2022/01/14 00:56:31;;;;;;;;;;;3.60;99.90;;;;;;4955241;29;19915;-78
2022/01/14 00:59:15;;;;;;;;;;;3.60;99.90;;;;;;4955378;29;19911;-78
2022/01/14 01:01:49;;;;;;;;;;;3.50;99.90;;;;;;4955228;29;20006;-78
2022/01/14 01:04:16;;;;;;;;;;;3.30;99.90;;;;;;4953960;29;19910;-78
2022/01/14 01:06:42;;;;;;;;;;;3.40;99.90;;;;;;4955375;29;19911;-78
2022/01/14 01:09:11;;;;;;;;;;;3.60;99.90;;;;;;4955102;29;19914;-78
2022/01/14 01:11:45;;;;;;;;;;;3.80;99.90;;;;;;4937836;29;19977;-78
2022/01/14 01:14:15;;;;;;;;;;;3.80;99.90;;;;;;4955214;29;19910;-79
2022/01/14 01:16:41;;;;;;;;;;;3.50;99.90;;;;;;4938562;29;19910;-78
2022/01/14 01:19:07;;;;;;;;;;;3.50;99.90;;;;;;4955062;29;19918;-78
2022/01/14 01:21:33;;;;;;;;;;;3.30;99.90;;;;;;4955220;29;19962;-78
2022/01/14 01:23:59;;;;;;;;;;;3.10;99.90;;;;;;4937737;29;20298;-78
2022/01/14 01:26:31;;;;;;;;;;;3.10;99.90;;;;;;4955083;29;19910;-78
2022/01/14 01:29:07;;;;;;;;;;;3.30;99.90;;;;;;4955059;29;19914;-78
2022/01/14 01:31:36;;;;;;;;;;;3.30;99.90;;;;;;4957722;28;19911;-78
2022/01/14 01:34:05;;;;;;;;;;;3.40;99.90;;;;;;4958578;29;19933;-78
2022/01/14 01:36:31;;;;;;;;;;;3.40;99.90;;;;;;4958334;29;19910;-78
2022/01/14 01:38:57;;;;;;;;;;;3.30;99.90;;;;;;4958552;29;19960;-78
2022/01/14 01:41:22;;;;;;;;;;;3.30;99.90;;;;;;4958288;29;19910;-78
2022/01/14 01:43:51;;;;;;;;;;;3.30;99.90;;;;;;4958190;29;19917;-78
2022/01/14 01:46:19;;;;;;;;;;;3.20;99.90;;;;;;4958538;29;19917;-78
2022/01/14 01:48:45;;;;;;;;;;;3.20;99.90;;;;;;4940796;29;19915;-78
2022/01/14 01:51:10;;;;;;;;;;;3.20;99.90;;;;;;4958047;29;20013;-78
2022/01/14 01:53:36;;;;;;;;;;;3.20;99.90;;;;;;4959586;28;20422;-78
2022/01/14 01:56:02;;;;;;;;;;;3.20;99.90;;;;;;4959951;28;19918;-78
2022/01/14 01:58:27;;;;;;;;;;;3.30;99.90;;;;;;4977573;28;19910;-78
2022/01/14 02:00:53;;;;;;;;;;;3.40;99.90;;;;;;4977325;28;19910;-78
2022/01/14 02:03:19;;;;;;;;;;;3.20;99.90;;;;;;4977736;28;19913;-78
2022/01/14 02:05:45;;;;;;;;;;;3.10;99.90;;;;;;4977167;28;19910;-78
2022/01/14 02:08:10;;;;;;;;;;;3.20;99.90;;;;;;4977003;28;19921;-78
2022/01/14 02:10:38;;;;;;;;;;;3.10;99.90;;;;;;4977076;28;19914;-78
2022/01/14 02:13:03;;;;;;;;;;;3.10;99.90;;;;;;4977008;28;19910;-78
2022/01/14 02:15:43;;;;;;;;;;;3.20;99.90;;;;;;4976962;28;19933;-78
2022/01/14 02:23:44;;;;;;;;;;;3.30;99.90;;;;;;4977106;28;19918;-78
2022/01/14 02:26:09;;;;;;;;;;;3.20;99.90;;;;;;4959717;28;19910;-78
2022/01/14 02:28:35;;;;;;;;;;;3.20;99.90;;;;;;4976661;28;19964;-78
2022/01/14 02:31:01;;;;;;;;;;;3.20;99.90;;;;;;4976640;28;19917;-78
2022/01/14 02:33:26;;;;;;;;;;;3.20;99.90;;;;;;4976600;28;19910;-78
2022/01/14 02:35:54;;;;;;;;;;;3.20;99.90;;;;;;4976662;28;19910;-78
2022/01/14 02:38:19;;;;;;;;;;;3.20;99.90;;;;;;4975287;28;19921;-78
2022/01/14 02:40:46;;;;;;;;;;;3.30;99.90;;;;;;4976540;28;19914;-78
2022/01/14 02:43:14;;;;;;;;;;;3.50;99.90;;;;;;4976283;28;20394;-78
2022/01/14 02:45:41;;;;;;;;;;;3.60;99.90;;;;;;4976901;28;20514;-78
2022/01/14 02:48:07;;;;;;;;;;;3.60;99.90;;;;;;4976288;28;20289;-78
2022/01/14 02:50:39;;;;;;;;;;;3.70;99.90;;;;;;4976340;28;19910;-78
2022/01/14 02:54:12;;;;;;;;;;;3.80;99.90;;;;;;4976435;28;19910;-78
2022/01/14 02:56:01;;;;;;;;;;;3.80;99.90;;;;;;4963296;28;19922;-78
2022/01/14 02:58:29;;;;;;;;;;;3.80;99.90;;;;;;4976343;28;19957;-78
2022/01/14 03:00:55;;;;;;;;;;;3.70;99.90;;;;;;4976072;28;19911;-78
2022/01/14 03:03:22;;;;;;;;;;;3.60;99.90;;;;;;4990976;28;19910;-78
2022/01/14 03:05:49;;;;;;;;;;;3.60;99.90;;;;;;4990923;28;19917;-78
2022/01/14 03:08:15;;;;;;;;;;;3.60;99.90;;;;;;4976078;28;20385;-78
2022/01/14 03:10:41;;;;;;;;;;;3.60;99.90;;;;;;4975900;28;19960;-78
2022/01/14 03:13:06;;;;;;;;;;;3.60;99.90;;;;;;4975867;28;19968;-78
2022/01/14 03:15:32;;;;;;;;;;;3.50;99.90;;;;;;4975821;28;20366;-78
2022/01/14 03:17:58;;;;;;;;;;;3.40;99.90;;;;;;4976654;28;19917;-78
2022/01/14 03:20:45;;;;;;;;;;;3.40;99.90;;;;;;4976019;28;19918;-78
2022/01/14 03:23:11;;;;;;;;;;;3.30;99.90;;;;;;4975289;28;19917;-78
2022/01/14 03:25:48;;;;;;;;;;;3.40;99.90;;;;;;4975617;28;19997;-78
2022/01/14 03:28:22;;;;;;;;;;;3.30;99.90;;;;;;4957893;28;19964;-78
2022/01/14 03:30:49;;;;;;;;;;;3.30;99.90;;;;;;4975659;28;19992;-78
2022/01/14 03:33:15;;;;;;;;;;;3.30;99.90;;;;;;4975529;28;20326;-78
2022/01/14 03:35:40;;;;;;;;;;;3.30;99.90;;;;;;4975820;28;19917;-78
2022/01/14 03:38:06;;;;;;;;;;;3.30;99.90;;;;;;4975415;28;20371;-78
2022/01/14 03:40:32;;;;;;;;;;;3.20;99.90;;;;;;4975584;28;19965;-78
2022/01/14 03:42:57;;;;;;;;;;;3.20;99.90;;;;;;4958008;28;19910;-78
2022/01/14 03:45:23;;;;;;;;;;;3.20;99.90;;;;;;4957944;28;19910;-78
2022/01/14 03:47:48;;;;;;;;;;;3.10;99.90;;;;;;4975185;28;20361;-78
2022/01/14 03:50:14;;;;;;;;;;;2.90;99.90;;;;;;4957874;28;19910;-78
2022/01/14 03:52:39;;;;;;;;;;;3.00;99.90;;;;;;4975123;28;20367;-78
2022/01/14 03:55:05;;;;;;;;;;;3.10;99.90;;;;;;4974675;28;19926;-78
2022/01/14 03:57:31;;;;;;;;;;;3.20;99.90;;;;;;4975164;28;19989;-78
2022/01/14 03:59:56;;;;;;;;;;;3.40;99.90;;;;;;4975141;28;19910;-78
2022/01/14 04:02:22;;;;;;;;;;;3.50;99.90;;;;;;4975223;28;20370;-78
2022/01/14 04:04:48;;;;;;;;;;;3.40;99.90;;;;;;4975097;28;20085;-78
2022/01/14 04:07:13;;;;;;;;;;;3.20;99.90;;;;;;4957727;28;19910;-78
2022/01/14 04:09:40;;;;;;;;;;;3.20;99.90;;;;;;4989818;28;19914;-78
2022/01/14 04:12:08;;;;;;;;;;;3.20;99.90;;;;;;4975116;28;19910;-78
2022/01/14 04:17:02;;;;;;;;;;;3.20;99.90;;;;;;4975839;28;19916;-78
2022/01/14 04:19:29;;;;;;;;;;;3.10;99.90;;;;;;4974964;28;19910;-78
2022/01/14 04:21:55;;;;;;;;;;;3.20;99.90;;;;;;4975211;28;19911;-78
2022/01/14 04:24:20;;;;;;;;;;;3.10;99.90;;;;;;4974833;28;19961;-78
2022/01/14 04:26:46;;;;;;;;;;;3.20;99.90;;;;;;4973640;28;19911;-78
2022/01/14 04:29:12;;;;;;;;;;;3.20;99.90;;;;;;4974721;28;20337;-78
2022/01/14 04:31:37;;;;;;;;;;;3.20;99.90;;;;;;4957454;28;19910;-78
2022/01/14 04:34:03;;;;;;;;;;;3.10;99.90;;;;;;4974926;28;20433;-78
2022/01/14 04:36:28;;;;;;;;;;;3.00;99.90;;;;;;4974752;28;20019;-78
2022/01/14 04:38:54;;;;;;;;;;;3.00;99.90;;;;;;4989553;28;20305;-78
2022/01/14 04:41:19;;;;;;;;;;;3.00;99.90;;;;;;4974730;28;19997;-79
2022/01/14 04:43:45;;;;;;;;;;;3.00;99.90;;;;;;4975130;28;20288;-78
2022/01/14 04:48:37;;;;;;;;;;;2.80;99.90;;;;;;4974577;28;19914;-78
2022/01/14 04:51:05;;;;;;;;;;;2.80;99.90;;;;;;4974539;28;19961;-78
2022/01/14 04:53:30;;;;;;;;;;;2.90;99.90;;;;;;4974318;28;20001;-78
2022/01/14 04:55:56;;;;;;;;;;;2.80;99.90;;;;;;4974578;28;20009;-78
2022/01/14 04:58:22;;;;;;;;;;;2.80;99.90;;;;;;4974584;28;19910;-78
2022/01/14 05:00:48;;;;;;;;;;;3.00;99.90;;;;;;4974557;28;19911;-78
2022/01/14 05:03:14;;;;;;;;;;;3.00;99.90;;;;;;4974554;28;20294;-78
2022/01/14 05:05:43;;;;;;;;;;;2.90;99.90;;;;;;4977127;28;19910;-81
2022/01/14 05:08:12;;;;;;;;;;;2.90;99.90;;;;;;4976911;28;19936;-78
2022/01/14 05:13:19;;;;;;;;;;;2.80;99.90;;;;;;4978253;28;19917;-78
2022/01/14 05:15:44;;;;;;;;;;;2.80;99.90;;;;;;4960748;28;19910;-78
2022/01/14 05:18:10;;;;;;;;;;;2.70;99.90;;;;;;4978563;28;20278;-78
2022/01/14 05:20:36;;;;;;;;;;;2.60;99.90;;;;;;4976765;28;20369;-78
2022/01/14 05:23:02;;;;;;;;;;;2.70;99.90;;;;;;4960604;28;20322;-78
2022/01/14 05:25:27;;;;;;;;;;;2.50;99.90;;;;;;4977893;28;19910;-78
2022/01/14 05:27:53;;;;;;;;;;;2.60;99.90;;;;;;4977746;28;19941;-78
2022/01/14 05:30:18;;;;;;;;;;;2.70;99.90;;;;;;4978054;28;20045;-78
2022/01/14 05:32:46;;;;;;;;;;;2.80;99.90;;;;;;4978134;28;20385;-78
2022/01/14 05:35:13;;;;;;;;;;;2.80;99.90;;;;;;4977947;28;19910;-78
2022/01/14 05:37:38;;;;;;;;;;;2.80;99.90;;;;;;4992589;28;20394;-78
2022/01/14 05:40:04;;;;;;;;;;;2.70;99.90;;;;;;4977768;28;19910;-78
2022/01/14 05:42:33;;;;;;;;;;;2.80;99.90;;;;;;4977570;28;20325;-78
2022/01/14 05:45:00;;;;;;;;;;;2.90;99.90;;;;;;4977716;28;19954;-78
2022/01/14 05:47:25;;;;;;;;;;;2.80;99.90;;;;;;4977504;28;19949;-78
2022/01/14 05:49:51;;;;;;;;;;;2.70;99.90;;;;;;4977489;28;19956;-78
2022/01/14 05:52:17;;;;;;;;;;;2.80;99.90;;;;;;4976040;28;19917;-78
2022/01/14 05:54:43;;;;;;;;;;;2.90;99.90;;;;;;4977181;28;19973;-78
2022/01/14 05:57:08;;;;;;;;;;;2.80;99.90;;;;;;4977484;28;20326;-78
2022/01/14 05:59:34;;;;;;;;;;;2.90;99.90;;;;;;4977258;28;19917;-78
2022/01/14 06:02:00;;;;;;;;;;;2.90;99.90;;;;;;4959832;28;19910;-78
2022/01/14 06:04:25;;;;;;;;;;;3.10;99.90;;;;;;4977250;28;20001;-78
2022/01/14 06:06:51;;;;;;;;;;;3.10;99.90;;;;;;4960015;28;20270;-78
2022/01/14 06:09:17;;;;;;;;;;;3.10;99.90;;;;;;4991908;28;19914;-78
2022/01/14 06:11:43;;;;;;;;;;;3.00;99.90;;;;;;4977290;28;19917;-78
2022/01/14 06:14:08;;;;;;;;;;;2.90;99.90;;;;;;4977181;28;19916;-78
2022/01/14 06:16:34;;;;;;;;;;;3.00;99.90;;;;;;4975068;28;19910;-78
2022/01/14 06:18:59;;;;;;;;;;;3.10;99.90;;;;;;4976922;28;19954;-78
2022/01/14 06:21:25;;;;;;;;;;;3.00;99.90;;;;;;4959574;28;19910;-78
2022/01/14 06:23:51;;;;;;;;;;;3.10;99.90;;;;;;4976855;28;19957;-78
2022/01/14 06:26:17;;;;;;;;;;;3.20;99.90;;;;;;4976745;28;19910;-78
2022/01/14 06:28:43;;;;;;;;;;;3.10;99.90;;;;;;4959327;28;19914;-78
2022/01/14 06:31:09;;;;;;;;;;;3.00;99.90;;;;;;4976697;28;19939;-78
2022/01/14 06:33:35;;;;;;;;;;;2.80;99.90;;;;;;4976671;28;19914;-78
2022/01/14 06:36:00;;;;;;;;;;;2.80;99.90;;;;;;4976754;28;19917;-78
2022/01/14 06:38:26;;;;;;;;;;;2.60;99.90;;;;;;4976665;28;19914;-78
2022/01/14 06:40:51;;;;;;;;;;;2.60;99.90;;;;;;4976502;28;20388;-78
2022/01/14 06:43:17;;;;;;;;;;;2.50;99.90;;;;;;4976873;28;19949;-78
2022/01/14 06:45:43;;;;;;;;;;;2.60;99.90;;;;;;4976805;28;20436;-78
2022/01/14 06:48:08;;;;;;;;;;;2.70;99.90;;;;;;4976341;28;19993;-78
2022/01/14 06:50:34;;;;;;;;;;;2.80;99.90;;;;;;4976477;28;19914;-78
2022/01/14 06:53:00;;;;;;;;;;;2.80;99.90;;;;;;4976269;28;19910;-78
2022/01/14 06:55:25;;;;;;;;;;;2.70;99.90;;;;;;4958454;28;19926;-78
2022/01/14 06:57:51;;;;;;;;;;;2.70;99.90;;;;;;4976166;28;19917;-78
2022/01/14 07:00:17;;;;;;;;;;;2.70;99.90;;;;;;4976011;28;19917;-79
2022/01/14 07:02:43;;;;;;;;;;;2.60;99.90;;;;;;4976088;28;19914;-78
2022/01/14 07:05:09;;;;;;;;;;;2.70;99.90;;;;;;4976129;28;19998;-78
2022/01/14 07:07:35;;;;;;;;;;;2.60;99.90;;;;;;4974699;28;19910;-78
2022/01/14 07:10:01;;;;;;;;;;;2.50;99.90;;;;;;4976171;28;19921;-78
2022/01/14 07:12:37;;;;;;;;;;;2.30;99.90;;;;;;4975893;28;20001;-78
2022/01/14 07:15:03;;;;;;;;;;;2.30;99.90;;;;;;4976614;28;20286;-79
2022/01/14 07:17:29;;;;;;;;;;;2.20;99.90;;;;;;4975956;28;19917;-78
2022/01/14 07:19:57;;;;;;;;;;;2.20;99.90;;;;;;4975894;28;20378;-78
2022/01/14 07:22:23;;;;;;;;;;;2.10;99.90;;;;;;4975810;28;19911;-78
2022/01/14 07:24:48;;;;;;;;;;;2.30;99.90;;;;;;4975721;28;19917;-78
2022/01/14 07:27:14;;;;;;;;;;;2.40;99.90;;;;;;4975475;28;20255;-78
2022/01/14 07:29:40;;;;;;;;;;;2.40;99.90;;;;;;4974808;28;19914;-78
2022/01/14 07:32:06;;;;;;;;;;;2.30;99.90;;;;;;4958193;28;19914;-78
2022/01/14 07:34:32;;;;;;;;;;;2.30;99.90;;;;;;4975304;28;20267;-78
2022/01/14 07:36:57;;;;;;;;;;;2.20;99.90;;;;;;4975141;28;19910;-78
2022/01/14 07:39:23;;;;;;;;;;;2.20;99.90;;;;;;4973992;28;19941;-78
2022/01/14 07:41:51;;;;;;;;;;;2.20;99.90;;;;;;4975632;28;19910;-78
2022/01/14 07:44:17;;;;;;;;;;;2.40;99.90;;;;;;4975595;28;20389;-78
2022/01/14 07:46:43;;;;;;;;;;;2.40;99.90;;;;;;4975569;28;19910;-78
2022/01/14 07:49:09;;;;;;;;;;;2.30;99.90;;;;;;4975362;28;20005;-78
2022/01/14 07:51:34;;;;;;;;;;;2.30;99.90;;;;;;4975360;28;20286;-79
2022/01/14 07:54:06;;;;;;;;;;;2.30;99.90;;;;;;4957638;28;19918;-78
2022/01/14 07:56:38;;;;;;;;;;;2.10;99.90;;;;;;4975466;28;19996;-79
2022/01/14 07:59:06;;;;;;;;;;;2.00;99.90;;;;;;4975189;28;20413;-78
2022/01/14 08:01:33;;;;;;;;;;;1.90;99.90;;;;;;4975405;28;19910;-79
2022/01/14 08:04:04;;;;;;;;;;;2.00;99.90;;;;;;4975090;28;19961;-80
2022/01/14 08:06:32;;;;;;;;;;;2.00;99.90;;;;;;4975025;28;19910;-80
2022/01/14 08:08:57;;;;;;;;;;;2.00;99.90;;;;;;4975337;28;19928;-78
2022/01/14 08:11:23;;;;;;;;;;;2.10;99.90;;;;;;4975023;28;20392;-78
2022/01/14 08:13:48;;;;;;;;;;;2.30;99.90;;;;;;4975422;28;19910;-78
2022/01/14 08:16:14;;;;;;;;;;;2.30;99.90;;;;;;4974940;28;20362;-78
2022/01/14 08:18:40;;;;;;;;;;;2.40;99.90;;;;;;4975200;28;20005;-78
2022/01/14 08:21:05;;;;;;;;;;;2.70;99.90;;;;;;4974919;28;19914;-78
2022/01/14 08:23:31;;;;;;;;;;;2.90;99.90;;;;;;4975087;28;19914;-78
2022/01/14 08:25:57;;;;;;;;;;;2.90;99.90;;;;;;4974867;28;20385;-79
2022/01/14 08:28:24;;;;;;;;;;;3.00;99.90;;;;;;4974751;28;19922;-78
2022/01/14 08:30:49;;;;;;;;;;;3.10;99.90;;;;;;4974849;28;19917;-78
2022/01/14 08:33:15;;;;;;;;;;;3.40;99.90;;;;;;4973553;28;19910;-78
2022/01/14 08:35:41;;;;;;;;;;;3.60;99.90;;;;;;4957415;28;19911;-78
2022/01/14 08:38:06;;;;;;;;;;;3.80;99.90;;;;;;4974869;28;20040;-78
2022/01/14 08:40:33;;;;;;;;;;;4.00;99.90;;;;;;4977295;28;19914;-78
2022/01/14 08:42:58;;;;;;;;;;;4.30;99.90;;;;;;4978704;28;20392;-78
2022/01/14 08:45:24;;;;;;;;;;;4.80;99.90;;;;;;4978678;28;19989;-78
2022/01/14 08:47:52;;;;;;;;;;;5.50;99.90;;;;;;4978634;28;20009;-79
2022/01/14 08:50:20;;;;;;;;;;;6.30;99.90;;;;;;4978642;28;20358;-79
2022/01/14 08:52:46;;;;;;;;;;;6.70;99.90;;;;;;4978435;28;20020;-79
2022/01/14 08:55:14;;;;;;;;;;;7.20;99.90;;;;;;4978386;28;20402;-78
2022/01/14 08:57:40;;;;;;;;;;;7.20;99.90;;;;;;4978474;28;19910;-79
2022/01/14 09:00:06;;;;;;;;;;;7.40;99.90;;;;;;4978693;28;19960;-79
2022/01/14 09:02:33;;;;;;;;;;;8.00;99.90;;;;;;4978334;28;20378;-79
2022/01/14 09:04:59;;;;;;;;;;;8.60;99.90;;;;;;4978395;28;19910;-79
2022/01/14 09:07:26;;;;;;;;;;;8.70;99.90;;;;;;4978622;28;20286;-79
2022/01/14 09:09:54;;;;;;;;;;;8.50;99.90;;;;;;4978142;28;20370;-79
2022/01/14 09:12:19;;;;;;;;;;;8.20;99.90;;;;;;4978316;28;19914;-79
2022/01/14 09:14:45;;;;;;;;;;;8.30;99.90;;;;;;4978707;28;20392;-79
2022/01/14 09:17:11;;;;;;;;;;;8.10;99.90;;;;;;4978106;28;19910;-78
2022/01/14 09:19:36;;;;;;;;;;;8.30;99.90;;;;;;4978035;28;19910;-78
2022/01/14 09:22:02;;;;;;;;;;;8.10;99.90;;;;;;4977959;28;19910;-79
2022/01/14 09:24:28;;;;;;;;;;;8.50;99.90;;;;;;4978012;28;20008;-79
2022/01/14 09:26:53;;;;;;;;;;;8.80;99.90;;;;;;4977934;28;19911;-79
2022/01/14 09:29:19;;;;;;;;;;;8.80;99.90;;;;;;4960405;28;19925;-79
2022/01/14 09:31:45;;;;;;;;;;;9.20;99.90;;;;;;4978214;28;20405;-79
2022/01/14 09:34:10;;;;;;;;;;;8.80;99.90;;;;;;4960418;28;19914;-79
2022/01/14 09:36:36;;;;;;;;;;;7.70;99.90;;;;;;4977817;28;19921;-78
2022/01/14 09:39:02;;;;;;;;;;;6.20;99.90;;;;;;4977710;28;19973;-80
2022/01/14 09:41:29;;;;;;;;;;;5.50;99.90;;;;;;4992505;28;20333;-78
2022/01/14 09:43:55;;;;;;;;;;;5.20;99.90;;;;;;4977965;28;19911;-80
2022/01/14 09:46:21;;;;;;;;;;;4.60;99.90;;;;;;4960112;28;19945;-80
2022/01/14 09:48:48;;;;;;;;;;;4.20;99.90;;;;;;4977712;28;20012;-80
2022/01/14 09:51:14;;;;;;;;;;;3.30;99.90;;;;;;4991416;28;19910;-80
2022/01/14 09:53:39;;;;;;;;;;;3.20;99.90;;;;;;4977421;28;19918;-80
2022/01/14 09:56:05;;;;;;;;;;;3.30;99.90;;;;;;4977940;28;19968;-80
2022/01/14 09:58:40;;;;;;;;;;;3.40;99.90;;;;;;4977325;28;19910;-80
2022/01/14 10:01:08;;;;;;;;;;;3.40;99.90;;;;;;4975727;28;19921;-80
2022/01/14 10:03:33;;;;;;;;;;;3.40;99.90;;;;;;4977295;28;19952;-80
2022/01/14 10:05:59;;;;;;;;;;;3.20;99.90;;;;;;4977162;28;19946;-80
2022/01/14 10:08:28;;;;;;;;;;;3.40;99.90;;;;;;4977086;28;20345;-80
2022/01/14 10:10:59;;;;;;;;;;;3.70;99.90;;;;;;4959750;28;19916;-80
2022/01/14 10:13:29;;;;;;;;;;;3.50;99.90;;;;;;4975734;28;20330;-80
2022/01/14 10:16:03;;;;;;;;;;;3.50;99.90;;;;;;4977547;28;19914;-80
2022/01/14 10:18:33;;;;;;;;;;;3.20;99.90;;;;;;4977152;28;19910;-80
2022/01/14 10:21:07;;;;;;;;;;;3.30;99.90;;;;;;4975371;28;19961;-80
2022/01/14 10:23:39;;;;;;;;;;;3.20;99.90;;;;;;4976875;28;19910;-80
2022/01/14 10:26:04;;;;;;;;;;;3.10;99.90;;;;;;4977143;28;19993;-80
2022/01/14 10:28:30;;;;;;;;;;;3.00;99.90;;;;;;4976668;28;19958;-80
2022/01/14 10:30:55;;;;;;;;;;;3.40;99.90;;;;;;4976747;28;19915;-80
2022/01/14 10:33:28;;;;;;;;;;;3.20;99.90;;;;;;4976886;28;19910;-80
2022/01/14 10:35:54;;;;;;;;;;;3.30;99.90;;;;;;4977253;28;19910;-80
2022/01/14 10:38:22;;;;;;;;;;;3.30;99.90;;;;;;4976615;28;20441;-80
2022/01/14 10:40:52;;;;;;;;;;;3.30;99.90;;;;;;4976595;28;19911;-80
2022/01/14 10:43:21;;;;;;;;;;;3.20;99.90;;;;;;4975304;28;20361;-80
2022/01/14 10:45:47;;;;;;;;;;;3.20;99.90;;;;;;4975049;28;19914;-80
2022/01/14 10:48:18;;;;;;;;;;;3.40;99.90;;;;;;4976331;28;19910;-80
2022/01/14 10:50:45;;;;;;;;;;;3.50;99.90;;;;;;4976711;28;19917;-80
2022/01/14 10:53:17;;;;;;;;;;;3.70;99.90;;;;;;4976147;28;20057;-80
2022/01/14 10:55:50;;;;;;;;;;;3.60;99.90;;;;;;4955172;29;19926;-80
2022/01/14 10:58:17;;;;;;;;;;;3.40;99.90;;;;;;4939706;29;19949;-80
2022/01/14 11:00:45;;;;;;;;;;;3.40;99.90;;;;;;4956877;29;20306;-80
2022/01/14 11:03:11;;;;;;;;;;;3.60;99.90;;;;;;4956702;28;20379;-80
2022/01/14 11:05:37;;;;;;;;;;;3.90;99.90;;;;;;4956796;29;20001;-80
2022/01/14 11:08:03;;;;;;;;;;;4.00;99.90;;;;;;4956914;29;19910;-80
2022/01/14 11:10:36;;;;;;;;;;;4.20;99.90;;;;;;4939470;29;19910;-80
2022/01/14 11:13:03;;;;;;;;;;;4.30;99.90;;;;;;4957348;29;19910;-80
2022/01/14 11:15:30;;;;;;;;;;;4.40;99.90;;;;;;4957142;29;19911;-80
2022/01/14 11:17:58;;;;;;;;;;;4.50;99.90;;;;;;4939233;29;20279;-80
2022/01/14 11:20:33;;;;;;;;;;;4.50;99.90;;;;;;4956596;29;19917;-80
2022/01/14 11:23:15;;;;;;;;;;;4.60;99.90;;;;;;4938961;29;19917;-80
2022/01/14 11:25:45;;;;;;;;;;;4.80;99.90;;;;;;4956749;29;20367;-79
2022/01/14 11:28:13;;;;;;;;;;;4.90;99.90;;;;;;4956324;29;20388;-81
2022/01/14 11:30:39;;;;;;;;;;;5.00;99.90;;;;;;4956518;29;19954;-82
2022/01/14 11:33:06;;;;;;;;;;;5.00;99.90;;;;;;4956272;29;19978;-82
2022/01/14 11:35:33;;;;;;;;;;;4.90;99.90;;;;;;4956717;29;19910;-81
2022/01/14 11:37:59;;;;;;;;;;;4.80;99.90;;;;;;4956224;29;19922;-81
2022/01/14 11:40:24;;;;;;;;;;;5.00;99.90;;;;;;4956157;29;19917;-80
2022/01/14 11:43:02;;;;;;;;;;;5.10;99.90;;;;;;4956412;29;19910;-81
2022/01/14 11:45:40;;;;;;;;;;;5.30;99.90;;;;;;4956466;29;19911;-80
2022/01/14 11:48:06;;;;;;;;;;;5.20;99.90;;;;;;4956045;29;19911;-82
2022/01/14 11:50:32;;;;;;;;;;;4.90;99.90;;;;;;4956254;29;19953;-81
2022/01/14 11:52:58;;;;;;;;;;;5.40;99.90;;;;;;4955920;29;19917;-81
2022/01/14 11:55:34;;;;;;;;;;;5.30;99.90;;;;;;4953950;28;19922;-80
2022/01/14 11:58:02;;;;;;;;;;;5.20;99.90;;;;;;4957833;28;19910;-82
2022/01/14 12:00:30;;;;;;;;;;;5.10;99.90;;;;;;4975488;28;20013;-81
2022/01/14 12:02:56;;;;;;;;;;;5.10;99.90;;;;;;4975096;28;19910;-82
2022/01/14 12:05:26;;;;;;;;;;;5.30;99.90;;;;;;4957814;28;19949;-80
2022/01/14 12:08:01;;;;;;;;;;;6.00;99.90;;;;;;4973825;28;19910;-80
2022/01/14 12:10:56;;;;;;;;;;;7.50;99.90;;;;;;4974981;28;20381;-78
2022/01/14 12:13:25;;;;;;;;;;;9.30;99.90;;;;;;4962228;28;19910;-80
2022/01/14 12:15:59;;;;;;;;;;;8.00;99.90;;;;;;4973800;28;19917;-82
2022/01/14 12:18:44;;;;;;;;;;;7.10;99.90;;;;;;4957300;28;20382;-80
2022/01/14 12:21:10;;;;;;;;;;;6.70;99.90;;;;;;4975189;28;19910;-80
2022/01/14 12:23:35;;;;;;;;;;;6.10;99.90;;;;;;4974895;28;19965;-80
2022/01/14 12:26:14;;;;;;;;;;;5.80;99.90;;;;;;4973609;28;19910;-80
2022/01/14 12:28:40;;;;;;;;;;;5.00;99.90;;;;;;4967510;28;19918;-80
2022/01/14 12:31:06;;;;;;;;;;;4.70;99.90;;;;;;4938267;28;19921;-80
2022/01/14 12:33:42;;;;;;;;;;;4.50;99.90;;;;;;4945137;28;20466;-80
2022/01/14 12:36:10;;;;;;;;;;;4.40;99.90;;;;;;4962307;28;20391;-80
2022/01/14 12:38:37;;;;;;;;;;;4.30;99.90;;;;;;4946299;28;19960;-80
2022/01/14 12:41:03;;;;;;;;;;;4.40;99.90;;;;;;4964224;28;19910;-80
2022/01/14 12:43:30;;;;;;;;;;;4.30;99.90;;;;;;4965266;28;20014;-80
2022/01/14 12:46:24;;;;;;;;;;;4.20;99.90;;;;;;4962579;28;19910;-80
2022/01/14 12:48:51;;;;;;;;;;;4.00;99.90;;;;;;4952077;28;19949;-80
2022/01/14 12:51:18;;;;;;;;;;;3.70;99.90;;;;;;4964988;28;20009;-80
2022/01/14 12:53:48;;;;;;;;;;;3.70;99.90;;;;;;4958198;28;19915;-80
2022/01/14 12:56:15;;;;;;;;;;;3.60;99.90;;;;;;4955733;29;19910;-80
2022/01/14 12:58:54;;;;;;;;;;;3.50;99.90;;;;;;4955233;29;20287;-80
2022/01/14 13:01:40;;;;;;;;;;;3.50;99.90;;;;;;4937988;29;19996;-80
2022/01/14 13:04:10;;;;;;;;;;;3.60;99.90;;;;;;4954710;29;19917;-80
2022/01/14 13:06:41;;;;;;;;;;;3.50;99.90;;;;;;4955174;29;20426;-80
2022/01/14 13:09:07;;;;;;;;;;;3.50;99.90;;;;;;4955097;29;19915;-79
2022/01/14 13:11:49;;;;;;;;;;;3.40;99.90;;;;;;4955124;29;19910;-80
2022/01/14 13:14:20;;;;;;;;;;;3.40;99.90;;;;;;4955338;29;20004;-80
2022/01/14 13:16:46;;;;;;;;;;;3.10;99.90;;;;;;4954111;29;20386;-80
2022/01/14 13:19:26;;;;;;;;;;;3.10;99.90;;;;;;4955036;29;20279;-80
2022/01/14 13:21:52;;;;;;;;;;;3.40;99.90;;;;;;4937806;29;19910;-80
2022/01/14 13:24:19;;;;;;;;;;;3.60;99.90;;;;;;4937750;29;20383;-80
2022/01/14 13:26:56;;;;;;;;;;;3.50;99.90;;;;;;4956082;28;19910;-80
2022/01/14 13:29:21;;;;;;;;;;;3.60;99.90;;;;;;4958940;29;19914;-79
2022/01/14 13:31:47;;;;;;;;;;;3.70;99.90;;;;;;4941340;29;20397;-80
2022/01/14 13:34:13;;;;;;;;;;;3.70;99.90;;;;;;4958678;29;20459;-80
2022/01/14 13:36:39;;;;;;;;;;;3.50;99.90;;;;;;4958359;29;19921;-80
2022/01/14 13:39:10;;;;;;;;;;;3.60;99.90;;;;;;4958585;29;19910;-79
2022/01/14 13:41:40;;;;;;;;;;;3.70;99.90;;;;;;4958355;29;19918;-80
2022/01/14 13:44:19;;;;;;;;;;;3.80;99.90;;;;;;4958291;29;19965;-79
2022/01/14 13:46:55;;;;;;;;;;;3.60;99.90;;;;;;4958287;29;20402;-79
2022/01/14 13:49:21;;;;;;;;;;;3.50;99.90;;;;;;4958307;29;19914;-80
2022/01/14 13:52:09;;;;;;;;;;;3.70;99.90;;;;;;4958039;29;20021;-80
2022/01/14 13:54:35;;;;;;;;;;;3.80;99.90;;;;;;4958085;28;20409;-80
2022/01/14 13:57:17;;;;;;;;;;;3.70;99.90;;;;;;4958328;29;19914;-80
2022/01/14 13:59:43;;;;;;;;;;;3.50;99.90;;;;;;4956523;29;19934;-79
2022/01/14 14:02:10;;;;;;;;;;;3.70;99.90;;;;;;4958016;29;19915;-80
2022/01/14 14:04:44;;;;;;;;;;;3.80;99.90;;;;;;4957993;29;19911;-80
2022/01/14 14:07:12;;;;;;;;;;;3.90;99.90;;;;;;4940459;29;19953;-80
2022/01/14 14:09:55;;;;;;;;;;;4.10;99.90;;;;;;4957715;29;19914;-80
2022/01/14 14:12:40;;;;;;;;;;;4.20;99.90;;;;;;4940317;29;19917;-79
2022/01/14 14:18:03;;;;;;;;;;;4.20;99.90;;;;;;4957618;29;20453;-80
2022/01/14 14:20:29;;;;;;;;;;;4.00;99.90;;;;;;4956438;29;19917;-81
2022/01/14 14:22:55;;;;;;;;;;;4.00;99.90;;;;;;4957607;29;20259;-80
2022/01/14 14:25:26;;;;;;;;;;;3.90;99.90;;;;;;4957516;29;19911;-80
2022/01/14 14:27:55;;;;;;;;;;;3.90;99.90;;;;;;4958090;29;19910;-80
2022/01/14 14:30:21;;;;;;;;;;;3.70;99.90;;;;;;4957449;29;19918;-80
2022/01/14 14:32:46;;;;;;;;;;;3.50;99.90;;;;;;4957686;29;19915;-79
2022/01/14 14:35:15;;;;;;;;;;;3.70;99.90;;;;;;4957445;29;20021;-79
2022/01/14 14:37:41;;;;;;;;;;;3.70;99.90;;;;;;4957452;28;19974;-79
2022/01/14 14:40:13;;;;;;;;;;;3.70;99.90;;;;;;4957207;29;19915;-80
2022/01/14 14:42:39;;;;;;;;;;;3.70;99.90;;;;;;4957424;29;19932;-80
2022/01/14 14:45:05;;;;;;;;;;;3.70;99.90;;;;;;4955914;29;19974;-80
2022/01/14 14:47:31;;;;;;;;;;;3.50;99.90;;;;;;4955709;29;20371;-80
2022/01/14 14:49:56;;;;;;;;;;;3.50;99.90;;;;;;4956995;29;20026;-80
2022/01/14 14:52:22;;;;;;;;;;;3.80;99.90;;;;;;4956991;29;19910;-80
2022/01/14 14:54:48;;;;;;;;;;;3.90;99.90;;;;;;4956878;29;19947;-80
2022/01/14 14:57:14;;;;;;;;;;;3.90;99.90;;;;;;4956972;29;19911;-80